Time;durP1;ratioP1;P1;durP2;ratioP2;P2;SDS_P1;SDS_P2;PMS_P1;PMS_P2;Temp;Humidity;BMP_temperature;BMP_pressure;BME280_temperature;BME280_humidity;BME280_pressure;Samples;Min_cycle;Max_cycle;Signal;HPM_P1;HPM_P2
2021/10/13 00:01:00;;;;;;;;;;;6.50;99.90;;;;;;5045808;28;20309;-61
2021/10/13 00:03:25;;;;;;;;;;;6.50;99.90;;;;;;5047494;28;19966;-62
2021/10/13 00:05:51;;;;;;;;;;;6.50;99.90;;;;;;5046784;28;19913;-62
2021/10/13 00:08:16;;;;;;;;;;;6.50;99.90;;;;;;5047043;28;19909;-62
2021/10/13 00:10:44;;;;;;;;;;;6.50;99.90;;;;;;5044413;28;19959;-61
2021/10/13 00:13:10;;;;;;;;;;;6.50;99.90;;;;;;5045837;28;20385;-62
2021/10/13 00:15:35;;;;;;;;;;;6.50;99.90;;;;;;5047159;28;19909;-61
2021/10/13 00:18:00;;;;;;;;;;;6.40;99.90;;;;;;5046822;28;19917;-61
2021/10/13 00:20:26;;;;;;;;;;;6.40;99.90;;;;;;5046644;28;20384;-61
2021/10/13 00:22:51;;;;;;;;;;;6.50;99.90;;;;;;5041615;28;19917;-61
2021/10/13 00:25:17;;;;;;;;;;;6.40;99.90;;;;;;5046323;28;20377;-62
2021/10/13 00:27:42;;;;;;;;;;;6.40;99.90;;;;;;5046446;28;19915;-62
2021/10/13 00:30:08;;;;;;;;;;;6.50;99.90;;;;;;5045844;28;19913;-62
2021/10/13 00:32:33;;;;;;;;;;;6.50;99.90;;;;;;5045514;28;20055;-62
2021/10/13 00:34:59;;;;;;;;;;;6.50;99.90;;;;;;5046529;28;19912;-62
2021/10/13 00:37:24;;;;;;;;;;;6.60;99.90;;;;;;5046263;28;19908;-62
2021/10/13 00:39:50;;;;;;;;;;;6.60;99.90;;;;;;5043827;28;19916;-63
2021/10/13 00:42:15;;;;;;;;;;;6.70;99.90;;;;;;5044963;28;19966;-63
2021/10/13 00:44:42;;;;;;;;;;;6.70;99.90;;;;;;5046226;28;19909;-62
2021/10/13 00:47:07;;;;;;;;;;;6.70;99.90;;;;;;5045655;28;19919;-62
2021/10/13 00:49:33;;;;;;;;;;;6.70;99.90;;;;;;5061981;22;19933;-62
2021/10/13 00:51:59;;;;;;;;;;;6.80;99.90;;;;;;5045126;28;20400;-62
2021/10/13 00:54:24;;;;;;;;;;;6.80;99.90;;;;;;5046097;28;20023;-62
2021/10/13 00:56:50;;;;;;;;;;;6.90;99.90;;;;;;5042665;28;20047;-59
2021/10/13 00:59:16;;;;;;;;;;;6.90;99.90;;;;;;5046151;28;19913;-62
2021/10/13 01:01:47;;;;;;;;;;;6.90;99.90;;;;;;5044565;28;20397;-62
2021/10/13 01:04:12;;;;;;;;;;;6.90;99.90;;;;;;5045767;28;19908;-62
2021/10/13 01:06:38;;;;;;;;;;;6.90;99.90;;;;;;5048374;28;19908;-62
2021/10/13 01:09:11;;;;;;;;;;;6.90;99.90;;;;;;5049482;28;20225;-62
2021/10/13 01:11:49;;;;;;;;;;;6.90;99.90;;;;;;5046814;28;19935;-62
2021/10/13 01:14:19;;;;;;;;;;;6.90;99.90;;;;;;5049535;28;19916;-62
2021/10/13 01:17:11;;;;;;;;;;;7.00;99.90;;;;;;5049490;28;19912;-62
2021/10/13 01:19:46;;;;;;;;;;;6.90;99.90;;;;;;5031331;28;19909;-61
2021/10/13 01:22:20;;;;;;;;;;;6.90;99.90;;;;;;5045918;28;20015;-61
2021/10/13 01:25:01;;;;;;;;;;;6.80;99.90;;;;;;5046402;28;19913;-61
2021/10/13 01:27:33;;;;;;;;;;;6.80;99.90;;;;;;5049473;28;19919;-61
2021/10/13 01:29:59;;;;;;;;;;;6.80;99.90;;;;;;5046251;28;19917;-61
2021/10/13 01:32:26;;;;;;;;;;;6.80;99.90;;;;;;5048291;28;19913;-61
2021/10/13 01:34:55;;;;;;;;;;;6.80;99.90;;;;;;5048940;28;19913;-61
2021/10/13 01:37:24;;;;;;;;;;;6.80;99.90;;;;;;5049436;28;20204;-61
2021/10/13 01:39:52;;;;;;;;;;;6.80;99.90;;;;;;5048747;28;19920;-62
2021/10/13 01:42:18;;;;;;;;;;;6.70;99.90;;;;;;5048679;28;19916;-61
2021/10/13 01:44:47;;;;;;;;;;;6.70;99.90;;;;;;5045481;28;19940;-61
2021/10/13 01:47:14;;;;;;;;;;;6.70;99.90;;;;;;5048906;28;19916;-61
2021/10/13 01:49:40;;;;;;;;;;;6.70;99.90;;;;;;5048146;28;19982;-62
2021/10/13 01:52:06;;;;;;;;;;;6.60;99.90;;;;;;5030205;28;19944;-61
2021/10/13 01:54:34;;;;;;;;;;;6.60;99.90;;;;;;5049008;28;19909;-61
2021/10/13 01:57:00;;;;;;;;;;;6.60;99.90;;;;;;5048228;28;20349;-61
2021/10/13 01:59:27;;;;;;;;;;;6.70;99.90;;;;;;5048422;28;19931;-61
2021/10/13 02:01:53;;;;;;;;;;;6.70;99.90;;;;;;5044593;28;20222;-61
2021/10/13 02:04:19;;;;;;;;;;;6.80;99.90;;;;;;5048398;28;20000;-61
2021/10/13 02:06:46;;;;;;;;;;;6.80;99.90;;;;;;5030532;28;20288;-61
2021/10/13 02:09:12;;;;;;;;;;;6.80;99.90;;;;;;5048286;28;20258;-61
2021/10/13 02:11:37;;;;;;;;;;;6.80;99.90;;;;;;5047593;28;19920;-61
2021/10/13 02:14:05;;;;;;;;;;;6.80;99.90;;;;;;5047957;28;19944;-61
2021/10/13 02:16:32;;;;;;;;;;;6.80;99.90;;;;;;5048512;28;20391;-61
2021/10/13 02:19:00;;;;;;;;;;;6.70;99.90;;;;;;5044781;28;19917;-61
2021/10/13 02:21:25;;;;;;;;;;;6.70;99.90;;;;;;5047073;28;19916;-62
2021/10/13 02:23:53;;;;;;;;;;;6.70;99.90;;;;;;5048478;28;20377;-61
2021/10/13 02:26:22;;;;;;;;;;;6.70;99.90;;;;;;5048470;28;19912;-61
2021/10/13 02:28:55;;;;;;;;;;;6.70;99.90;;;;;;5047768;28;19913;-61
2021/10/13 02:31:21;;;;;;;;;;;6.70;99.90;;;;;;5047252;28;20026;-61
2021/10/13 02:33:46;;;;;;;;;;;6.70;99.90;;;;;;5047509;28;19931;-61
2021/10/13 02:36:11;;;;;;;;;;;6.70;99.90;;;;;;5045627;28;19966;-61
2021/10/13 02:38:37;;;;;;;;;;;6.80;99.90;;;;;;5047352;28;19980;-61
2021/10/13 02:41:03;;;;;;;;;;;6.70;99.90;;;;;;5046957;28;19952;-61
2021/10/13 02:43:28;;;;;;;;;;;6.80;99.90;;;;;;5048225;28;19999;-61
2021/10/13 02:45:57;;;;;;;;;;;6.80;99.90;;;;;;5048275;28;19909;-61
2021/10/13 02:48:25;;;;;;;;;;;6.80;99.90;;;;;;5029724;28;19992;-61
2021/10/13 02:51:09;;;;;;;;;;;6.80;99.90;;;;;;5046757;28;19931;-61
2021/10/13 02:53:38;;;;;;;;;;;6.90;99.90;;;;;;5044792;28;20345;-61
2021/10/13 02:56:04;;;;;;;;;;;6.90;99.90;;;;;;5046526;28;20233;-61
2021/10/13 02:58:38;;;;;;;;;;;6.90;99.90;;;;;;5047768;28;19909;-61
2021/10/13 03:01:04;;;;;;;;;;;6.90;99.90;;;;;;5046786;28;20015;-61
2021/10/13 03:03:35;;;;;;;;;;;7.00;99.90;;;;;;5047953;28;19913;-61
2021/10/13 03:06:01;;;;;;;;;;;7.00;99.90;;;;;;5046886;28;19917;-61
2021/10/13 03:08:27;;;;;;;;;;;7.00;99.90;;;;;;5048181;28;20272;-61
2021/10/13 03:10:56;;;;;;;;;;;7.00;99.90;;;;;;5043350;28;19913;-60
2021/10/13 03:13:23;;;;;;;;;;;7.00;99.90;;;;;;5047089;28;19917;-60
2021/10/13 03:15:50;;;;;;;;;;;7.10;99.90;;;;;;5046862;28;19975;-60
2021/10/13 03:18:16;;;;;;;;;;;7.10;99.90;;;;;;5047558;28;19919;-60
2021/10/13 03:20:41;;;;;;;;;;;7.10;99.90;;;;;;5046901;28;19999;-60
2021/10/13 03:23:07;;;;;;;;;;;7.10;99.90;;;;;;5046662;28;20012;-60
2021/10/13 03:25:33;;;;;;;;;;;7.10;99.90;;;;;;5044316;28;20052;-60
2021/10/13 03:27:59;;;;;;;;;;;7.10;99.90;;;;;;5046641;28;20355;-60
2021/10/13 03:30:25;;;;;;;;;;;7.10;99.90;;;;;;5046499;28;19943;-60
2021/10/13 03:32:51;;;;;;;;;;;7.10;99.90;;;;;;5027568;28;19909;-60
2021/10/13 03:35:34;;;;;;;;;;;7.10;99.90;;;;;;5046565;28;19916;-60
2021/10/13 03:38:01;;;;;;;;;;;7.10;99.90;;;;;;5046889;28;20012;-59
2021/10/13 03:40:27;;;;;;;;;;;7.00;99.90;;;;;;5026158;28;19909;-61
2021/10/13 03:42:53;;;;;;;;;;;7.00;99.90;;;;;;5044889;28;20362;-61
2021/10/13 03:45:20;;;;;;;;;;;7.00;99.90;;;;;;5046370;28;19930;-61
2021/10/13 03:47:46;;;;;;;;;;;7.10;99.90;;;;;;5046237;28;20381;-61
2021/10/13 03:50:12;;;;;;;;;;;7.10;99.90;;;;;;5046623;28;19970;-61
2021/10/13 03:52:37;;;;;;;;;;;7.10;99.90;;;;;;5045414;28;19952;-61
2021/10/13 03:55:07;;;;;;;;;;;7.20;99.90;;;;;;5046024;28;20416;-61
2021/10/13 03:57:32;;;;;;;;;;;7.20;99.90;;;;;;5046680;28;20318;-59
2021/10/13 03:59:58;;;;;;;;;;;7.20;99.90;;;;;;5043392;28;19917;-60
2021/10/13 04:02:23;;;;;;;;;;;7.20;99.90;;;;;;5040615;28;19921;-61
2021/10/13 04:04:48;;;;;;;;;;;7.20;99.90;;;;;;5044941;28;20270;-61
2021/10/13 04:07:14;;;;;;;;;;;7.20;99.90;;;;;;5044193;28;19916;-60
2021/10/13 04:09:39;;;;;;;;;;;7.20;99.90;;;;;;5044482;28;19913;-60
2021/10/13 04:12:05;;;;;;;;;;;7.20;99.90;;;;;;5042866;28;20459;-60
2021/10/13 04:14:30;;;;;;;;;;;7.20;99.90;;;;;;5046004;28;20046;-59
2021/10/13 04:16:56;;;;;;;;;;;7.20;99.90;;;;;;5039230;28;19917;-61
2021/10/13 04:19:23;;;;;;;;;;;7.20;99.90;;;;;;5042942;28;19913;-61
2021/10/13 04:21:48;;;;;;;;;;;7.30;99.90;;;;;;5036169;28;19921;-60
2021/10/13 04:24:14;;;;;;;;;;;7.30;99.90;;;;;;5046151;28;19909;-60
2021/10/13 04:26:39;;;;;;;;;;;7.30;99.90;;;;;;5038250;28;19983;-60
2021/10/13 04:29:04;;;;;;;;;;;7.30;99.90;;;;;;5046058;28;19917;-61
2021/10/13 04:31:30;;;;;;;;;;;7.30;99.90;;;;;;5038192;28;19995;-60
2021/10/13 04:33:55;;;;;;;;;;;7.30;99.90;;;;;;5045294;28;19912;-60
2021/10/13 04:36:21;;;;;;;;;;;7.30;99.90;;;;;;5043854;28;19913;-61
2021/10/13 04:38:46;;;;;;;;;;;7.20;99.90;;;;;;5042831;28;19924;-61
2021/10/13 04:41:12;;;;;;;;;;;7.20;99.90;;;;;;5023335;28;20000;-61
2021/10/13 04:43:38;;;;;;;;;;;7.10;99.90;;;;;;5042449;28;19935;-61
2021/10/13 04:46:03;;;;;;;;;;;7.10;99.90;;;;;;5042834;28;20357;-60
2021/10/13 04:48:29;;;;;;;;;;;7.00;99.90;;;;;;5042989;28;19990;-60
2021/10/13 04:50:54;;;;;;;;;;;7.00;99.90;;;;;;5040822;28;19920;-60
2021/10/13 04:53:20;;;;;;;;;;;7.00;99.90;;;;;;5043226;28;19919;-61
2021/10/13 04:55:45;;;;;;;;;;;7.00;99.90;;;;;;5040235;28;20017;-61
2021/10/13 04:58:10;;;;;;;;;;;7.00;99.90;;;;;;5044559;28;20015;-61
2021/10/13 05:00:36;;;;;;;;;;;7.00;99.90;;;;;;5045385;28;19996;-60
2021/10/13 05:03:02;;;;;;;;;;;7.00;99.90;;;;;;5044426;28;19952;-60
2021/10/13 05:05:27;;;;;;;;;;;7.00;99.90;;;;;;5046302;28;20438;-61
2021/10/13 05:07:53;;;;;;;;;;;7.10;99.90;;;;;;5045886;28;19951;-60
2021/10/13 05:10:18;;;;;;;;;;;7.10;99.90;;;;;;5045584;28;20448;-60
2021/10/13 05:12:43;;;;;;;;;;;7.10;99.90;;;;;;5041479;28;20293;-61
2021/10/13 05:15:09;;;;;;;;;;;7.10;99.90;;;;;;5045391;28;19935;-61
2021/10/13 05:17:34;;;;;;;;;;;7.10;99.90;;;;;;5045049;28;19909;-60
2021/10/13 05:20:00;;;;;;;;;;;7.10;99.90;;;;;;5044721;28;19913;-60
2021/10/13 05:22:25;;;;;;;;;;;7.10;99.90;;;;;;5044424;28;20153;-60
2021/10/13 05:24:51;;;;;;;;;;;7.20;99.90;;;;;;5044822;28;19916;-60
2021/10/13 05:27:16;;;;;;;;;;;7.20;99.90;;;;;;5042938;28;20432;-61
2021/10/13 05:29:42;;;;;;;;;;;7.20;99.90;;;;;;5043825;28;19909;-61
2021/10/13 05:32:07;;;;;;;;;;;7.20;99.90;;;;;;5043394;28;19917;-60
2021/10/13 05:34:33;;;;;;;;;;;7.20;99.90;;;;;;5044194;28;19916;-60
2021/10/13 05:36:58;;;;;;;;;;;7.20;99.90;;;;;;5027561;28;19913;-60
2021/10/13 05:39:26;;;;;;;;;;;7.20;99.90;;;;;;5045978;28;19908;-61
2021/10/13 05:41:51;;;;;;;;;;;7.20;99.90;;;;;;5042586;28;20562;-61
2021/10/13 05:44:16;;;;;;;;;;;7.20;99.90;;;;;;5027023;28;19913;-61
2021/10/13 05:46:42;;;;;;;;;;;7.20;99.90;;;;;;5045181;28;19973;-60
2021/10/13 05:49:07;;;;;;;;;;;7.30;99.90;;;;;;5045569;28;20442;-60
2021/10/13 05:51:33;;;;;;;;;;;7.30;99.90;;;;;;5045108;28;19916;-60
2021/10/13 05:53:58;;;;;;;;;;;7.30;99.90;;;;;;5048363;28;19909;-60
2021/10/13 05:56:23;;;;;;;;;;;7.30;99.90;;;;;;5049426;28;19946;-61
2021/10/13 05:58:52;;;;;;;;;;;7.30;99.90;;;;;;5048636;28;20051;-61
2021/10/13 06:01:19;;;;;;;;;;;7.30;99.90;;;;;;5048201;28;19967;-60
2021/10/13 06:03:45;;;;;;;;;;;7.30;99.90;;;;;;5046412;28;19917;-61
2021/10/13 06:06:10;;;;;;;;;;;7.20;99.90;;;;;;5048714;28;19916;-61
2021/10/13 06:08:36;;;;;;;;;;;7.30;99.90;;;;;;5048876;28;19913;-61
2021/10/13 06:11:01;;;;;;;;;;;7.20;99.90;;;;;;5048564;28;20499;-61
2021/10/13 06:13:27;;;;;;;;;;;7.30;99.90;;;;;;5048760;28;20378;-61
2021/10/13 06:15:53;;;;;;;;;;;7.30;99.90;;;;;;5048971;28;19913;-60
2021/10/13 06:18:18;;;;;;;;;;;7.30;99.90;;;;;;5047980;28;20050;-61
2021/10/13 06:20:44;;;;;;;;;;;7.40;99.90;;;;;;5045461;28;20373;-60
2021/10/13 06:23:09;;;;;;;;;;;7.40;99.90;;;;;;5046541;28;19950;-61
2021/10/13 06:25:35;;;;;;;;;;;7.40;99.90;;;;;;5048519;28;19909;-61
2021/10/13 06:28:00;;;;;;;;;;;7.40;99.90;;;;;;5047364;28;19913;-60
2021/10/13 06:30:28;;;;;;;;;;;7.50;99.90;;;;;;5048157;28;19909;-61
2021/10/13 06:32:54;;;;;;;;;;;7.50;99.90;;;;;;5046910;28;20066;-61
2021/10/13 06:35:19;;;;;;;;;;;7.50;99.90;;;;;;5047461;28;20582;-61
2021/10/13 06:37:46;;;;;;;;;;;7.60;99.90;;;;;;5045821;28;19916;-60
2021/10/13 06:40:12;;;;;;;;;;;7.60;99.90;;;;;;5047399;28;19912;-60
2021/10/13 06:42:37;;;;;;;;;;;7.60;99.90;;;;;;5046542;28;19917;-61
2021/10/13 06:45:03;;;;;;;;;;;7.50;99.90;;;;;;5047733;28;19909;-60
2021/10/13 06:47:28;;;;;;;;;;;7.60;99.90;;;;;;5028845;28;19939;-60
2021/10/13 06:49:54;;;;;;;;;;;7.60;99.90;;;;;;5047652;28;19917;-60
2021/10/13 06:52:19;;;;;;;;;;;7.60;99.90;;;;;;5046127;28;19924;-61
2021/10/13 06:54:45;;;;;;;;;;;7.70;99.90;;;;;;5047390;28;20361;-61
2021/10/13 06:57:10;;;;;;;;;;;7.80;99.90;;;;;;5047578;28;20015;-61
2021/10/13 06:59:36;;;;;;;;;;;7.90;99.90;;;;;;5029273;28;19963;-61
2021/10/13 07:02:01;;;;;;;;;;;7.90;99.90;;;;;;5046389;28;19917;-61
2021/10/13 07:04:27;;;;;;;;;;;8.00;99.90;;;;;;5047074;28;19919;-61
2021/10/13 07:06:52;;;;;;;;;;;8.00;99.90;;;;;;5047175;28;19908;-61
2021/10/13 07:09:17;;;;;;;;;;;8.00;99.90;;;;;;5046081;28;20282;-61
2021/10/13 07:11:43;;;;;;;;;;;8.00;99.90;;;;;;5046414;28;19924;-61
2021/10/13 07:14:09;;;;;;;;;;;8.00;99.90;;;;;;5047236;28;19917;-61
2021/10/13 07:16:35;;;;;;;;;;;8.00;99.90;;;;;;5047499;28;19962;-61
2021/10/13 07:19:00;;;;;;;;;;;8.00;99.90;;;;;;5043982;28;19917;-61
2021/10/13 07:21:26;;;;;;;;;;;8.00;99.90;;;;;;5046462;28;19920;-61
2021/10/13 07:23:51;;;;;;;;;;;7.90;99.90;;;;;;5046515;28;19952;-62
2021/10/13 07:26:17;;;;;;;;;;;7.90;99.90;;;;;;5047334;28;19920;-61
2021/10/13 07:28:42;;;;;;;;;;;7.90;99.90;;;;;;5046381;28;20305;-61
2021/10/13 07:31:08;;;;;;;;;;;8.00;99.90;;;;;;5046458;28;19925;-61
2021/10/13 07:33:34;;;;;;;;;;;8.10;99.90;;;;;;5044397;28;19919;-63
2021/10/13 07:35:59;;;;;;;;;;;8.10;99.90;;;;;;5046316;28;19917;-61
2021/10/13 07:38:25;;;;;;;;;;;8.20;99.90;;;;;;5046483;28;19909;-61
2021/10/13 07:40:50;;;;;;;;;;;8.20;99.90;;;;;;5045867;28;20435;-61
2021/10/13 07:43:15;;;;;;;;;;;8.20;99.90;;;;;;5045863;28;19913;-61
2021/10/13 07:45:42;;;;;;;;;;;8.30;99.90;;;;;;5046603;28;19912;-61
2021/10/13 07:48:07;;;;;;;;;;;8.30;99.90;;;;;;5045848;28;19920;-61
2021/10/13 07:50:33;;;;;;;;;;;8.30;99.90;;;;;;5045838;28;19925;-61
2021/10/13 07:52:58;;;;;;;;;;;8.30;99.90;;;;;;5027599;28;19916;-61
2021/10/13 07:55:23;;;;;;;;;;;8.30;99.90;;;;;;5046321;28;20254;-61
2021/10/13 07:57:49;;;;;;;;;;;8.30;99.90;;;;;;5046535;28;19952;-61
2021/10/13 08:00:16;;;;;;;;;;;8.30;99.90;;;;;;5045670;28;20223;-62
2021/10/13 08:02:45;;;;;;;;;;;8.30;99.90;;;;;;5045519;28;20371;-61
2021/10/13 08:05:11;;;;;;;;;;;8.40;99.90;;;;;;5046816;28;20091;-60
2021/10/13 08:07:36;;;;;;;;;;;8.50;99.90;;;;;;5044833;28;20019;-62
2021/10/13 08:10:02;;;;;;;;;;;8.40;99.90;;;;;;5045515;28;19912;-61
2021/10/13 08:12:27;;;;;;;;;;;8.50;99.90;;;;;;5046612;28;19970;-60
2021/10/13 08:14:53;;;;;;;;;;;8.50;99.90;;;;;;5045839;28;20285;-62
2021/10/13 08:17:18;;;;;;;;;;;8.50;99.90;;;;;;5046705;28;20242;-62
2021/10/13 08:19:44;;;;;;;;;;;8.60;99.90;;;;;;5046119;28;19913;-61
2021/10/13 08:22:09;;;;;;;;;;;8.60;99.90;;;;;;5043804;28;20012;-61
2021/10/13 08:24:35;;;;;;;;;;;8.70;99.90;;;;;;5045272;28;20007;-62
2021/10/13 08:27:02;;;;;;;;;;;8.70;99.90;;;;;;5046386;28;20335;-61
2021/10/13 08:29:28;;;;;;;;;;;8.70;99.90;;;;;;5045995;28;19951;-62
2021/10/13 08:31:53;;;;;;;;;;;8.70;99.90;;;;;;5045160;28;19966;-61
2021/10/13 08:34:19;;;;;;;;;;;8.70;99.90;;;;;;5045611;28;19955;-61
2021/10/13 08:36:44;;;;;;;;;;;8.60;99.90;;;;;;5046326;28;19920;-62
2021/10/13 08:39:09;;;;;;;;;;;8.60;99.90;;;;;;5046330;28;19909;-61
2021/10/13 08:41:35;;;;;;;;;;;8.50;99.90;;;;;;5043936;28;19921;-62
2021/10/13 08:44:00;;;;;;;;;;;8.50;99.90;;;;;;5046194;28;19909;-61
2021/10/13 08:46:26;;;;;;;;;;;8.60;99.90;;;;;;5046128;28;19909;-62
2021/10/13 08:48:51;;;;;;;;;;;8.70;99.90;;;;;;5027571;28;19909;-62
2021/10/13 08:51:17;;;;;;;;;;;8.80;99.90;;;;;;5045925;28;19924;-61
2021/10/13 08:53:43;;;;;;;;;;;8.90;99.90;;;;;;5045814;28;20007;-61
2021/10/13 08:56:08;;;;;;;;;;;9.00;99.90;;;;;;5046144;28;20374;-61
2021/10/13 08:58:37;;;;;;;;;;;9.00;99.90;;;;;;5046418;28;19921;-61
2021/10/13 09:01:03;;;;;;;;;;;9.10;99.90;;;;;;5045230;28;19944;-61
2021/10/13 09:03:30;;;;;;;;;;;9.10;99.90;;;;;;5046011;28;20273;-61
2021/10/13 09:05:56;;;;;;;;;;;9.20;99.90;;;;;;5043174;28;20285;-62
2021/10/13 09:08:21;;;;;;;;;;;9.30;99.90;;;;;;5045774;28;20285;-62
2021/10/13 09:10:47;;;;;;;;;;;9.30;99.90;;;;;;5045207;28;19909;-61
2021/10/13 09:13:14;;;;;;;;;;;9.40;99.90;;;;;;5045655;28;19913;-61
2021/10/13 09:15:41;;;;;;;;;;;9.50;99.90;;;;;;5046230;28;20312;-61
2021/10/13 09:18:07;;;;;;;;;;;9.60;99.90;;;;;;5045952;28;20292;-61
2021/10/13 09:20:34;;;;;;;;;;;9.60;99.90;;;;;;5043356;28;19912;-61
2021/10/13 09:23:15;;;;;;;;;;;9.60;99.90;;;;;;5043253;28;19944;-60
2021/10/13 09:25:40;;;;;;;;;;;9.70;99.90;;;;;;5045581;28;19991;-61
2021/10/13 09:28:06;;;;;;;;;;;9.70;99.90;;;;;;5049260;28;20005;-60
2021/10/13 09:30:39;;;;;;;;;;;9.80;99.90;;;;;;5049453;28;20328;-61
2021/10/13 09:33:11;;;;;;;;;;;9.80;99.90;;;;;;5049042;28;19917;-60
2021/10/13 09:35:41;;;;;;;;;;;9.80;99.90;;;;;;5049414;28;19921;-60
2021/10/13 09:38:06;;;;;;;;;;;9.80;99.90;;;;;;5049218;28;20276;-60
2021/10/13 09:40:33;;;;;;;;;;;9.70;99.90;;;;;;5047439;28;19923;-62
2021/10/13 09:42:59;;;;;;;;;;;9.70;99.90;;;;;;5049341;28;20373;-62
2021/10/13 09:45:26;;;;;;;;;;;9.60;99.90;;;;;;5048997;28;20003;-62
2021/10/13 09:47:58;;;;;;;;;;;9.70;99.90;;;;;;5049492;28;19919;-61
2021/10/13 09:50:36;;;;;;;;;;;9.80;99.90;;;;;;5048926;28;19964;-63
2021/10/13 09:53:13;;;;;;;;;;;9.80;99.90;;;;;;5049164;28;19971;-61
2021/10/13 09:55:39;;;;;;;;;;;9.90;99.90;;;;;;5046623;28;20286;-62
2021/10/13 09:58:04;;;;;;;;;;;9.90;99.90;;;;;;5048884;28;19912;-61
2021/10/13 10:00:29;;;;;;;;;;;10.00;99.90;;;;;;5049013;28;20026;-60
2021/10/13 10:02:59;;;;;;;;;;;10.10;99.90;;;;;;5048555;28;20142;-62
2021/10/13 10:05:32;;;;;;;;;;;10.20;99.90;;;;;;5049057;28;19993;-62
2021/10/13 10:08:00;;;;;;;;;;;10.40;99.90;;;;;;5048728;28;19916;-61
2021/10/13 10:10:26;;;;;;;;;;;10.50;99.90;;;;;;5049105;28;19959;-61
2021/10/13 10:12:54;;;;;;;;;;;10.60;99.90;;;;;;5045476;28;19955;-62
2021/10/13 10:15:27;;;;;;;;;;;10.70;99.80;;;;;;5048649;28;19920;-61
2021/10/13 10:17:53;;;;;;;;;;;10.80;99.90;;;;;;5030528;28;19912;-61
2021/10/13 10:20:38;;;;;;;;;;;10.90;99.90;;;;;;5048841;28;19919;-62
2021/10/13 10:23:22;;;;;;;;;;;11.00;99.60;;;;;;5048190;28;19921;-61
2021/10/13 10:25:47;;;;;;;;;;;11.20;99.40;;;;;;5030814;28;20339;-61
2021/10/13 10:28:33;;;;;;;;;;;11.20;98.90;;;;;;5045715;28;20009;-61
2021/10/13 10:31:17;;;;;;;;;;;11.30;98.70;;;;;;5047744;28;19946;-61
2021/10/13 10:33:49;;;;;;;;;;;11.30;98.70;;;;;;5048509;28;19913;-61
2021/10/13 10:36:15;;;;;;;;;;;11.30;98.70;;;;;;5046394;28;19912;-60
2021/10/13 10:38:50;;;;;;;;;;;11.50;98.50;;;;;;5047534;28;19916;-62
2021/10/13 10:41:15;;;;;;;;;;;11.50;98.60;;;;;;5030033;28;20483;-62
2021/10/13 10:43:40;;;;;;;;;;;11.60;98.40;;;;;;5048450;28;19959;-61
2021/10/13 10:46:06;;;;;;;;;;;11.70;98.10;;;;;;5048394;28;20471;-61
2021/10/13 10:48:47;;;;;;;;;;;11.80;98.00;;;;;;5047881;28;20277;-62
2021/10/13 10:51:14;;;;;;;;;;;11.80;97.70;;;;;;5047710;28;19921;-62
2021/10/13 10:53:39;;;;;;;;;;;11.90;97.10;;;;;;5045921;28;19913;-61
2021/10/13 10:56:11;;;;;;;;;;;12.00;97.40;;;;;;5047459;28;19920;-62
2021/10/13 10:58:36;;;;;;;;;;;12.00;97.30;;;;;;5048166;28;19908;-61
2021/10/13 11:01:06;;;;;;;;;;;12.10;97.40;;;;;;5047455;28;19919;-61
2021/10/13 11:03:36;;;;;;;;;;;12.10;97.40;;;;;;5048381;28;20019;-61
2021/10/13 11:06:12;;;;;;;;;;;12.10;97.20;;;;;;5047526;28;20362;-62
2021/10/13 11:08:56;;;;;;;;;;;12.10;97.00;;;;;;5048037;28;20815;-61
2021/10/13 11:11:22;;;;;;;;;;;12.00;96.90;;;;;;5044644;28;19928;-61
2021/10/13 11:13:56;;;;;;;;;;;12.00;96.90;;;;;;5029106;28;19992;-61
2021/10/13 11:16:21;;;;;;;;;;;12.10;97.20;;;;;;5047621;28;20004;-61
2021/10/13 11:18:47;;;;;;;;;;;12.20;96.80;;;;;;5046413;28;19987;-61
2021/10/13 11:21:13;;;;;;;;;;;12.20;96.40;;;;;;5046979;28;19955;-61
2021/10/13 11:23:39;;;;;;;;;;;12.30;96.60;;;;;;5047121;28;20319;-62
2021/10/13 11:26:04;;;;;;;;;;;12.30;96.70;;;;;;5047459;28;19924;-61
2021/10/13 11:28:33;;;;;;;;;;;12.40;95.50;;;;;;5045418;28;19924;-61
2021/10/13 11:31:02;;;;;;;;;;;12.30;95.60;;;;;;5045889;28;20019;-62
2021/10/13 11:33:28;;;;;;;;;;;12.20;95.50;;;;;;5047356;28;19917;-62
2021/10/13 11:35:58;;;;;;;;;;;12.10;95.30;;;;;;5046074;28;19920;-61
2021/10/13 11:38:24;;;;;;;;;;;12.00;95.80;;;;;;5046770;28;20020;-61
2021/10/13 11:40:49;;;;;;;;;;;12.00;96.20;;;;;;5046764;28;19923;-61
2021/10/13 11:43:17;;;;;;;;;;;12.10;96.40;;;;;;5047414;28;19913;-62
2021/10/13 11:45:46;;;;;;;;;;;12.30;96.50;;;;;;5047654;28;19935;-60
2021/10/13 11:48:21;;;;;;;;;;;12.40;96.40;;;;;;5047443;28;19916;-61
2021/10/13 11:50:46;;;;;;;;;;;12.50;96.10;;;;;;5045686;28;20283;-62
2021/10/13 11:53:12;;;;;;;;;;;12.60;96.20;;;;;;5044372;28;20025;-61
2021/10/13 11:55:38;;;;;;;;;;;12.70;95.70;;;;;;5047313;28;19916;-61
2021/10/13 11:58:04;;;;;;;;;;;12.80;95.30;;;;;;5046625;28;20649;-62
2021/10/13 12:00:31;;;;;;;;;;;12.90;95.10;;;;;;5029307;28;19987;-61
2021/10/13 12:03:01;;;;;;;;;;;13.00;94.70;;;;;;5046112;28;19939;-61
2021/10/13 12:05:34;;;;;;;;;;;13.10;94.80;;;;;;5047121;28;19917;-62
2021/10/13 12:08:10;;;;;;;;;;;13.20;94.10;;;;;;5028801;28;19919;-61
2021/10/13 12:10:46;;;;;;;;;;;13.20;94.10;;;;;;5044849;28;20012;-62
2021/10/13 12:13:13;;;;;;;;;;;13.30;94.20;;;;;;5045948;28;19994;-62
2021/10/13 12:15:40;;;;;;;;;;;13.30;93.60;;;;;;5046759;28;19909;-62
2021/10/13 12:18:13;;;;;;;;;;;13.30;93.60;;;;;;5046972;28;19920;-61
2021/10/13 12:20:38;;;;;;;;;;;13.10;92.70;;;;;;5046143;28;19908;-62
2021/10/13 12:23:15;;;;;;;;;;;13.00;92.80;;;;;;5045741;28;20380;-62
2021/10/13 12:25:40;;;;;;;;;;;13.00;93.20;;;;;;5045751;28;19913;-61
2021/10/13 12:28:16;;;;;;;;;;;12.90;93.20;;;;;;5043970;28;19926;-62
2021/10/13 12:30:42;;;;;;;;;;;12.90;93.00;;;;;;5045579;28;19920;-62
2021/10/13 12:33:09;;;;;;;;;;;12.80;93.10;;;;;;5046054;28;19912;-62
2021/10/13 12:35:35;;;;;;;;;;;12.80;93.70;;;;;;5046733;28;19917;-61
2021/10/13 12:38:02;;;;;;;;;;;12.90;93.60;;;;;;5047292;28;20028;-59
2021/10/13 12:40:28;;;;;;;;;;;12.90;93.70;;;;;;5045525;28;19963;-61
2021/10/13 12:42:55;;;;;;;;;;;12.90;93.70;;;;;;5046050;28;19917;-61
2021/10/13 12:45:26;;;;;;;;;;;12.90;93.80;;;;;;5044290;28;20070;-61
2021/10/13 12:48:10;;;;;;;;;;;12.90;94.00;;;;;;5046238;28;20277;-62
2021/10/13 12:50:35;;;;;;;;;;;12.90;94.20;;;;;;5091149;22;20291;-69
2021/10/13 12:53:01;;;;;;;;;;;12.90;94.40;;;;;;5047968;28;19913;-69
2021/10/13 12:55:26;;;;;;;;;;;13.00;94.50;;;;;;5047768;28;19912;-69
2021/10/13 12:57:52;;;;;;;;;;;13.00;94.60;;;;;;5048031;28;19908;-69
2021/10/13 13:00:17;;;;;;;;;;;13.10;94.50;;;;;;5047608;28;19920;-69
2021/10/13 13:02:43;;;;;;;;;;;13.10;94.50;;;;;;5047722;28;19921;-69
2021/10/13 13:05:08;;;;;;;;;;;13.20;94.60;;;;;;5051967;28;20458;-69
2021/10/13 13:07:33;;;;;;;;;;;13.20;94.60;;;;;;5052012;28;19909;-69
2021/10/13 13:09:59;;;;;;;;;;;13.20;94.30;;;;;;5051075;28;20482;-69
2021/10/13 13:12:24;;;;;;;;;;;13.30;94.50;;;;;;5050543;28;19913;-69
2021/10/13 13:14:50;;;;;;;;;;;13.30;94.50;;;;;;5051539;28;19917;-70
2021/10/13 13:17:15;;;;;;;;;;;13.50;94.60;;;;;;5051821;28;19909;-70
2021/10/13 13:19:41;;;;;;;;;;;13.50;94.50;;;;;;5050021;28;20015;-69
2021/10/13 13:22:06;;;;;;;;;;;13.60;94.30;;;;;;5049922;28;19944;-69
2021/10/13 13:24:32;;;;;;;;;;;13.60;94.20;;;;;;5048735;28;19924;-69
2021/10/13 13:26:57;;;;;;;;;;;13.60;94.10;;;;;;5051098;28;20394;-69
2021/10/13 13:29:23;;;;;;;;;;;13.60;94.20;;;;;;5051193;28;19913;-69
2021/10/13 13:31:48;;;;;;;;;;;13.60;94.10;;;;;;5050949;28;19917;-69
2021/10/13 13:34:15;;;;;;;;;;;13.70;94.20;;;;;;5051446;28;19979;-69
2021/10/13 13:36:41;;;;;;;;;;;13.70;94.20;;;;;;5033004;28;20274;-69
2021/10/13 13:39:06;;;;;;;;;;;13.60;94.00;;;;;;5048802;28;19917;-69
2021/10/13 13:41:32;;;;;;;;;;;13.50;94.10;;;;;;5050170;28;19916;-69
2021/10/13 13:43:57;;;;;;;;;;;13.50;94.20;;;;;;5051369;28;19947;-69
2021/10/13 13:46:22;;;;;;;;;;;13.40;94.30;;;;;;5050709;28;20051;-69
2021/10/13 13:48:48;;;;;;;;;;;13.30;94.10;;;;;;5050585;28;20430;-69
2021/10/13 13:51:14;;;;;;;;;;;13.30;94.10;;;;;;5050434;28;19932;-69
2021/10/13 13:53:40;;;;;;;;;;;13.30;94.10;;;;;;5032734;28;19916;-69
2021/10/13 13:56:06;;;;;;;;;;;13.30;94.10;;;;;;5048387;28;19917;-69
2021/10/13 13:58:31;;;;;;;;;;;13.20;94.00;;;;;;5051057;28;20386;-69
2021/10/13 14:00:56;;;;;;;;;;;13.20;94.00;;;;;;5031976;28;19944;-69
2021/10/13 14:03:22;;;;;;;;;;;13.20;94.00;;;;;;5050952;28;20007;-69
2021/10/13 14:05:48;;;;;;;;;;;13.20;94.20;;;;;;5050966;28;19948;-69
2021/10/13 14:08:13;;;;;;;;;;;13.30;94.30;;;;;;5032505;28;19912;-69
2021/10/13 14:10:39;;;;;;;;;;;13.30;94.30;;;;;;5050832;28;19912;-69
2021/10/13 14:13:05;;;;;;;;;;;13.30;94.50;;;;;;5048128;28;19916;-69
2021/10/13 14:15:31;;;;;;;;;;;13.30;94.70;;;;;;5050334;28;20336;-70
2021/10/13 14:17:56;;;;;;;;;;;13.30;95.00;;;;;;5050425;28;20031;-69
2021/10/13 14:20:22;;;;;;;;;;;13.30;95.20;;;;;;5050402;28;19951;-69
2021/10/13 14:22:47;;;;;;;;;;;13.30;94.80;;;;;;5049775;28;20031;-69
2021/10/13 14:25:13;;;;;;;;;;;13.20;94.90;;;;;;5049906;28;19913;-69